PWSweather.com
Personal Weather Stations
Station Observations
MACKBIG
Historic Main Street, Unionville, ON L3R6A5

Historic Main StreetUnionville, ON L3R6A5

Lat: 43.875506, Lon: -79.312903

Elevation: 590

Station Type: Davis VP2 + 6163

http://www.mackweather.com

Latest ConditionsUpdated 4:40:10 PM EDT Monday, Sep 23, 2019
Currently Today's Max Today's Min Today's Average
Temperature 75.3°F24.1°C 76.8°F24.9°C 70.4°F21.3°C 73.5°F23.1°C
Dew Point 60.0°F15.6°C 67.0°F19.4°C 59.7°F15.4°C 63.7°F17.6°C
Winds 8.0 mph NW12.9 kmh NW 10.0 mph -16.1 kmh - - 6.5 mph 10.5 kmh
Wind Gusts 16.0 mph25.7 kmh 18.0 mph29.0 kmh - -
Humidity 59% 82% 57% 72%
Pressure 29.67 in1004.7 mb 29.70 in1005.8 mb 29.64 in1003.7 mb -
Precipitation - 0.02 in0.5 mm - -
Hour Temp Dew Point Humidity Winds Wind Gusts Pressure Precip Precip Rate Daily Precip Total
04:40 PM 75.3°F24.1°C 60.0°F15.6°C 59% 8.0 mph NW12.9 kmh NW 16.0 mph25.7 kmh 29.67 in1004.7 mb - 0.00 in0.0 mm 0.02 in0.5 mm
04:30 PM 76.2°F24.6°C 59.9°F15.5°C 57% 7.0 mph WNW11.3 kmh WNW 14.0 mph22.5 kmh 29.67 in1004.7 mb - 0.00 in0.0 mm 0.02 in0.5 mm
04:20 PM 76.0°F24.4°C 60.6°F15.9°C 59% 7.0 mph W11.3 kmh W 12.0 mph19.3 kmh 29.67 in1004.7 mb - 0.00 in0.0 mm 0.02 in0.5 mm
04:10 PM 75.4°F24.1°C 60.1°F15.6°C 59% 6.0 mph NW9.7 kmh NW 12.0 mph19.3 kmh 29.67 in1004.7 mb - 0.00 in0.0 mm 0.02 in0.5 mm
04:00 PM 75.2°F24.0°C 59.9°F15.5°C 59% 5.0 mph W8.0 kmh W 8.0 mph12.9 kmh 29.67 in1004.7 mb - 0.00 in0.0 mm 0.02 in0.5 mm
03:50 PM 75.3°F24.1°C 60.0°F15.6°C 59% 6.0 mph NNW9.7 kmh NNW 13.0 mph20.9 kmh 29.68 in1005.1 mb - 0.00 in0.0 mm 0.02 in0.5 mm
03:40 PM 75.5°F24.2°C 59.7°F15.4°C 58% 7.0 mph WSW11.3 kmh WSW 12.0 mph19.3 kmh 29.68 in1005.1 mb - 0.00 in0.0 mm 0.02 in0.5 mm
03:30 PM 75.7°F24.3°C 60.4°F15.8°C 59% 6.0 mph WSW9.7 kmh WSW 12.0 mph19.3 kmh 29.67 in1004.7 mb - 0.00 in0.0 mm 0.02 in0.5 mm
03:20 PM 75.4°F24.1°C 61.0°F16.1°C 61% 3.0 mph WNW4.8 kmh WNW 6.0 mph9.7 kmh 29.68 in1005.1 mb - 0.00 in0.0 mm 0.02 in0.5 mm
03:10 PM 76.0°F24.4°C 60.6°F15.9°C 59% 5.0 mph NW8.0 kmh NW 8.0 mph12.9 kmh 29.68 in1005.1 mb - 0.00 in0.0 mm 0.02 in0.5 mm
03:00 PM 76.0°F24.4°C 61.1°F16.2°C 60% 5.0 mph NNE8.0 kmh NNE 12.0 mph19.3 kmh 29.67 in1004.7 mb - 0.00 in0.0 mm 0.02 in0.5 mm
02:50 PM 75.6°F24.2°C 60.7°F15.9°C 60% 8.0 mph WNW12.9 kmh WNW 14.0 mph22.5 kmh 29.67 in1004.7 mb - 0.00 in0.0 mm 0.02 in0.5 mm
02:40 PM 74.6°F23.7°C 60.7°F15.9°C 62% 8.0 mph WNW12.9 kmh WNW 7.0 mph11.3 kmh 29.67 in1004.7 mb - 0.00 in0.0 mm 0.02 in0.5 mm
02:30 PM 74.0°F23.3°C 61.0°F16.1°C 64% 5.0 mph WSW8.0 kmh WSW 6.0 mph9.7 kmh 29.67 in1004.7 mb - 0.00 in0.0 mm 0.02 in0.5 mm
02:20 PM 73.9°F23.3°C 61.0°F16.1°C 64% 8.0 mph WNW12.9 kmh WNW 13.0 mph20.9 kmh 29.67 in1004.7 mb - 0.00 in0.0 mm 0.02 in0.5 mm
02:10 PM 72.8°F22.7°C 60.8°F16.0°C 66% 5.0 mph WSW8.0 kmh WSW 5.0 mph8.0 kmh 29.67 in1004.7 mb - 0.00 in0.0 mm 0.02 in0.5 mm
02:00 PM 71.6°F22.0°C 60.5°F15.8°C 68% 7.0 mph WSW11.3 kmh WSW 13.0 mph20.9 kmh 29.68 in1005.1 mb - 0.00 in0.0 mm 0.02 in0.5 mm
01:50 PM 70.9°F21.6°C 60.2°F15.7°C 69% 8.0 mph NW12.9 kmh NW 14.0 mph22.5 kmh 29.68 in1005.1 mb - 0.00 in0.0 mm 0.02 in0.5 mm
01:40 PM 71.8°F22.1°C 60.7°F15.9°C 68% 8.0 mph NW12.9 kmh NW 18.0 mph29.0 kmh 29.68 in1005.1 mb - 0.00 in0.0 mm 0.02 in0.5 mm
01:30 PM 72.5°F22.5°C 62.6°F17.0°C 71% 9.0 mph NW14.5 kmh NW 14.0 mph22.5 kmh 29.69 in1005.4 mb - 0.00 in0.0 mm 0.02 in0.5 mm
01:20 PM 71.7°F22.1°C 62.2°F16.8°C 72% 7.0 mph NW11.3 kmh NW 12.0 mph19.3 kmh 29.69 in1005.4 mb - 0.00 in0.0 mm 0.02 in0.5 mm
01:10 PM 70.7°F21.5°C 62.0°F16.7°C 74% 6.0 mph N9.7 kmh N 12.0 mph19.3 kmh 29.69 in1005.4 mb - 0.00 in0.0 mm 0.02 in0.5 mm
01:00 PM 70.4°F21.3°C 62.1°F16.7°C 75% 7.0 mph NNW11.3 kmh NNW 10.0 mph16.1 kmh 29.70 in1005.8 mb - 0.00 in0.0 mm 0.02 in0.5 mm
12:50 PM 71.3°F21.8°C 62.6°F17.0°C 74% 8.0 mph NNW12.9 kmh NNW 14.0 mph22.5 kmh 29.70 in1005.8 mb - 0.00 in0.0 mm 0.02 in0.5 mm
12:40 PM 72.1°F22.3°C 64.5°F18.1°C 77% 7.0 mph N11.3 kmh N 12.0 mph19.3 kmh 29.68 in1005.1 mb - 0.00 in0.0 mm 0.02 in0.5 mm
12:30 PM 71.9°F22.2°C 64.3°F17.9°C 77% 7.0 mph N11.3 kmh N 15.0 mph24.1 kmh 29.68 in1005.1 mb - 0.00 in0.0 mm 0.02 in0.5 mm
12:20 PM 71.8°F22.1°C 64.2°F17.9°C 77% 6.0 mph W9.7 kmh W 9.0 mph14.5 kmh 29.68 in1005.1 mb - 0.00 in0.0 mm 0.02 in0.5 mm
12:10 PM 72.1°F22.3°C 64.9°F18.3°C 78% 10.0 mph NW16.1 kmh NW 17.0 mph27.4 kmh 29.68 in1005.1 mb - 0.00 in0.0 mm 0.02 in0.5 mm
12:00 PM 71.5°F21.9°C 64.6°F18.1°C 79% 7.0 mph NNW11.3 kmh NNW 15.0 mph24.1 kmh 29.68 in1005.1 mb - 0.00 in0.0 mm 0.02 in0.5 mm
11:50 AM 71.8°F22.1°C 64.2°F17.9°C 77% 6.0 mph N9.7 kmh N 9.0 mph14.5 kmh 29.68 in1005.1 mb - 0.00 in0.0 mm 0.02 in0.5 mm
11:40 AM 72.4°F22.4°C 64.5°F18.1°C 76% 7.0 mph NNE11.3 kmh NNE 12.0 mph19.3 kmh 29.68 in1005.1 mb - 0.00 in0.0 mm 0.02 in0.5 mm
11:30 AM 74.7°F23.7°C 65.4°F18.6°C 73% 6.0 mph NW9.7 kmh NW 15.0 mph24.1 kmh 29.68 in1005.1 mb - 0.00 in0.0 mm 0.02 in0.5 mm
11:20 AM 75.3°F24.1°C 64.8°F18.2°C 70% 8.0 mph W12.9 kmh W 14.0 mph22.5 kmh 29.67 in1004.7 mb - 0.00 in0.0 mm 0.02 in0.5 mm
11:10 AM 76.8°F24.9°C 65.9°F18.8°C 69% 8.0 mph W12.9 kmh W 13.0 mph20.9 kmh 29.67 in1004.7 mb - 0.00 in0.0 mm 0.02 in0.5 mm
11:00 AM 76.6°F24.8°C 66.1°F18.9°C 70% 6.0 mph WSW9.7 kmh WSW 12.0 mph19.3 kmh 29.66 in1004.4 mb - 0.00 in0.0 mm 0.02 in0.5 mm
10:50 AM 76.5°F24.7°C 66.0°F18.9°C 70% 7.0 mph SW11.3 kmh SW 14.0 mph22.5 kmh 29.67 in1004.7 mb - 0.00 in0.0 mm 0.02 in0.5 mm
10:40 AM 76.1°F24.5°C 66.8°F19.3°C 73% 6.0 mph WSW9.7 kmh WSW 7.0 mph11.3 kmh 29.66 in1004.4 mb - 0.00 in0.0 mm 0.02 in0.5 mm
10:30 AM 75.0°F23.9°C 66.9°F19.4°C 76% 7.0 mph W11.3 kmh W 13.0 mph20.9 kmh 29.67 in1004.7 mb - 0.00 in0.0 mm 0.02 in0.5 mm
10:20 AM 74.2°F23.4°C 66.9°F19.4°C 78% 7.0 mph W11.3 kmh W 12.0 mph19.3 kmh 29.66 in1004.4 mb - 0.00 in0.0 mm 0.02 in0.5 mm
10:10 AM 73.7°F23.2°C 66.8°F19.3°C 79% 6.0 mph W9.7 kmh W 9.0 mph14.5 kmh 29.66 in1004.4 mb - 0.00 in0.0 mm 0.02 in0.5 mm
10:00 AM 73.5°F23.1°C 66.6°F19.2°C 79% 5.0 mph WSW8.0 kmh WSW 5.0 mph8.0 kmh 29.66 in1004.4 mb - 0.00 in0.0 mm 0.02 in0.5 mm
09:50 AM 73.5°F23.1°C 66.6°F19.2°C 79% 5.0 mph WSW8.0 kmh WSW 8.0 mph12.9 kmh 29.66 in1004.4 mb - 0.00 in0.0 mm 0.02 in0.5 mm
09:40 AM 73.5°F23.1°C 66.9°F19.4°C 80% 7.0 mph WSW11.3 kmh WSW 12.0 mph19.3 kmh 29.66 in1004.4 mb - 0.00 in0.0 mm 0.02 in0.5 mm
09:30 AM 73.3°F22.9°C 66.8°F19.3°C 80% 5.0 mph WSW8.0 kmh WSW 5.0 mph8.0 kmh 29.66 in1004.4 mb - 0.00 in0.0 mm 0.02 in0.5 mm
09:20 AM 73.2°F22.9°C 67.0°F19.4°C 81% 5.0 mph W8.0 kmh W 9.0 mph14.5 kmh 29.66 in1004.4 mb - 0.00 in0.0 mm 0.02 in0.5 mm
09:10 AM 73.0°F22.8°C 66.8°F19.3°C 81% 5.0 mph WSW8.0 kmh WSW 13.0 mph20.9 kmh 29.66 in1004.4 mb - 0.00 in0.0 mm 0.02 in0.5 mm
09:00 AM 72.5°F22.5°C 66.6°F19.2°C 82% 6.0 mph WNW9.7 kmh WNW 12.0 mph19.3 kmh 29.66 in1004.4 mb - 0.00 in0.0 mm 0.02 in0.5 mm
08:50 AM 72.1°F22.3°C 66.3°F19.1°C 82% 3.0 mph NW4.8 kmh NW 7.0 mph11.3 kmh 29.66 in1004.4 mb - 0.00 in0.0 mm 0.02 in0.5 mm
08:40 AM 72.0°F22.2°C 66.2°F19.0°C 82% 6.0 mph W9.7 kmh W 12.0 mph19.3 kmh 29.66 in1004.4 mb - 0.00 in0.0 mm 0.02 in0.5 mm
08:30 AM 71.9°F22.2°C 66.1°F18.9°C 82% 8.0 mph W12.9 kmh W 12.0 mph19.3 kmh 29.66 in1004.4 mb - 0.00 in0.0 mm 0.02 in0.5 mm
08:20 AM 71.8°F22.1°C 66.0°F18.9°C 82% 6.0 mph WSW9.7 kmh WSW 12.0 mph19.3 kmh 29.66 in1004.4 mb - 0.00 in0.0 mm 0.02 in0.5 mm
08:10 AM 71.6°F22.0°C 65.8°F18.8°C 82% 7.0 mph WSW11.3 kmh WSW 8.0 mph12.9 kmh 29.66 in1004.4 mb - 0.00 in0.0 mm 0.02 in0.5 mm
08:00 AM 71.4°F21.9°C 65.6°F18.7°C 82% 6.0 mph W9.7 kmh W 12.0 mph19.3 kmh 29.65 in1004.1 mb - 0.00 in0.0 mm 0.02 in0.5 mm
07:50 AM 71.3°F21.8°C 65.5°F18.6°C 82% 6.0 mph SW9.7 kmh SW 9.0 mph14.5 kmh 29.65 in1004.1 mb - 0.00 in0.0 mm 0.02 in0.5 mm
07:40 AM 71.2°F21.8°C 65.4°F18.6°C 82% 5.0 mph WSW8.0 kmh WSW 10.0 mph16.1 kmh 29.64 in1003.7 mb - 0.00 in0.0 mm 0.02 in0.5 mm